Time;durP1;ratioP1;P1;durP2;ratioP2;P2;SDS_P1;SDS_P2;PMS_P1;PMS_P2;Temp;Humidity;BMP_temperature;BMP_pressure;BME280_temperature;BME280_humidity;BME280_pressure;Samples;Min_cycle;Max_cycle;Signal;HPM_P1;HPM_P2
2022/06/21 00:01:00;;;;;;;;;;;;;;;;;;5038522;28;46016;-76
2022/06/21 00:03:27;;;;;;;;;;;;;;;;;;5045743;28;44956;-76
2022/06/21 00:05:53;;;;;;;;;;;;;;;;;;5047150;28;47036;-76
2022/06/21 00:08:19;;;;;;;;;;;;;;;;;;5042648;28;46939;-76
2022/06/21 00:10:46;;;;;;;;;;;;;;;;;;5047467;28;44699;-76
2022/06/21 00:13:12;;;;;;;;;;;;;;;;;;5023476;28;47973;-76
2022/06/21 00:15:38;;;;;;;;;;;;;;;;;;5053455;28;44591;-76
2022/06/21 00:18:04;;;;;;;;;;;;;;;;;;5038129;28;47665;-75
2022/06/21 00:20:31;;;;;;;;;;;;;;;;;;5042474;28;47397;-76
2022/06/21 00:22:57;;;;;;;;;;;;;;;;;;5050619;28;44652;-76
2022/06/21 00:25:23;;;;;;;;;;;;;;;;;;5041901;28;46373;-76
2022/06/21 00:27:51;;;;;;;;;;;;;;;;;;5042626;28;20387;-76
2022/06/21 00:30:17;;;;;;;;;;;;;;;;;;5062404;28;44737;-77
2022/06/21 00:32:43;;;;;;;;;;;;;;;;;;5052542;28;46503;-76
2022/06/21 00:35:09;;;;;;;;;;;;;;;;;;5045952;28;34438;-77
2022/06/21 00:37:36;;;;;;;;;;;;;;;;;;5044513;28;47444;-76
2022/06/21 00:40:02;;;;;;;;;;;;;;;;;;5048623;28;47042;-76
2022/06/21 00:42:28;;;;;;;;;;;;;;;;;;5043729;28;44691;-76
2022/06/21 00:44:54;;;;;;;;;;;;;;;;;;5039255;28;47588;-76
2022/06/21 00:47:21;;;;;;;;;;;;;;;;;;5045378;28;46985;-77
2022/06/21 00:49:52;;;;;;;;;;;;;;;;;;5027514;28;43454;-76
2022/06/21 00:52:19;;;;;;;;;;;;;;;;;;5041025;28;47533;-76
2022/06/21 00:54:45;;;;;;;;;;;;;;;;;;5057809;28;46972;-76
2022/06/21 00:57:11;;;;;;;;;;;;;;;;;;5027656;28;47482;-77
2022/06/21 00:59:38;;;;;;;;;;;;;;;;;;5034000;28;47016;-76
2022/06/21 01:02:04;;;;;;;;;;;;;;;;;;5049149;28;44559;-76
2022/06/21 01:04:30;;;;;;;;;;;;;;;;;;5045301;28;46135;-77
2022/06/21 01:06:56;;;;;;;;;;;;;;;;;;5028415;28;45252;-76
2022/06/21 01:09:23;;;;;;;;;;;;;;;;;;5037247;28;44624;-76
2022/06/21 01:11:49;;;;;;;;;;;;;;;;;;5032892;28;46375;-76
2022/06/21 01:14:15;;;;;;;;;;;;;;;;;;5054394;28;46756;-77
2022/06/21 01:16:41;;;;;;;;;;;;;;;;;;5028440;28;44252;-76
2022/06/21 01:19:08;;;;;;;;;;;;;;;;;;5048436;28;47460;-75
2022/06/21 01:21:34;;;;;;;;;;;;;;;;;;5042211;28;46312;-76
2022/06/21 01:24:00;;;;;;;;;;;;;;;;;;5032504;28;46786;-77
2022/06/21 01:26:26;;;;;;;;;;;;;;;;;;5037545;28;46904;-76
2022/06/21 01:28:53;;;;;;;;;;;;;;;;;;5039780;28;45588;-77
2022/06/21 01:31:19;;;;;;;;;;;;;;;;;;5023512;28;46188;-76
2022/06/21 01:33:45;;;;;;;;;;;;;;;;;;5036728;28;47287;-77
2022/06/21 01:36:11;;;;;;;;;;;;;;;;;;5042765;28;45967;-76
2022/06/21 01:38:38;;;;;;;;;;;;;;;;;;5043508;28;47679;-76
2022/06/21 01:41:04;;;;;;;;;;;;;;;;;;5050955;28;45870;-76
2022/06/21 01:43:30;;;;;;;;;;;;;;;;;;5029787;28;46756;-76
2022/06/21 01:45:56;;;;;;;;;;;;;;;;;;5037726;28;48065;-76
2022/06/21 01:48:23;;;;;;;;;;;;;;;;;;5042341;28;44547;-76
2022/06/21 01:50:49;;;;;;;;;;;;;;;;;;5041704;28;46764;-76
2022/06/21 01:53:15;;;;;;;;;;;;;;;;;;5039199;28;44859;-76
2022/06/21 01:55:42;;;;;;;;;;;;;;;;;;5025136;28;43791;-76
2022/06/21 01:58:08;;;;;;;;;;;;;;;;;;5037568;28;45409;-76
2022/06/21 02:00:34;;;;;;;;;;;;;;;;;;5050825;28;47176;-77
2022/06/21 02:03:00;;;;;;;;;;;;;;;;;;5032122;28;46056;-76
2022/06/21 02:05:27;;;;;;;;;;;;;;;;;;5039999;28;45077;-76
2022/06/21 02:07:53;;;;;;;;;;;;;;;;;;5040937;28;45716;-76
2022/06/21 02:10:19;;;;;;;;;;;;;;;;;;5043618;28;46620;-76
2022/06/21 02:12:45;;;;;;;;;;;;;;;;;;5038294;28;47058;-76
2022/06/21 02:15:12;;;;;;;;;;;;;;;;;;5039112;28;44819;-77
2022/06/21 02:17:40;;;;;;;;;;;;;;;;;;5026453;28;46279;-77
2022/06/21 02:20:07;;;;;;;;;;;;;;;;;;5037734;28;45935;-76
2022/06/21 02:22:33;;;;;;;;;;;;;;;;;;5021277;28;43475;-76
2022/06/21 02:24:59;;;;;;;;;;;;;;;;;;5062467;28;47006;-76
2022/06/21 02:27:26;;;;;;;;;;;;;;;;;;5036636;28;44935;-76
2022/06/21 02:29:52;;;;;;;;;;;;;;;;;;5038952;28;46420;-77
2022/06/21 02:32:31;;;;;;;;;;;;;;;;;;5035302;28;46835;-77
2022/06/21 02:34:58;;;;;;;;;;;;;;;;;;5023194;28;44628;-77
2022/06/21 02:37:24;;;;;;;;;;;;;;;;;;5042041;28;46478;-76
2022/06/21 02:39:52;;;;;;;;;;;;;;;;;;5041303;28;47254;-76
2022/06/21 02:42:18;;;;;;;;;;;;;;;;;;5038449;28;44715;-76
2022/06/21 02:44:44;;;;;;;;;;;;;;;;;;5034298;28;48273;-76
2022/06/21 02:47:10;;;;;;;;;;;;;;;;;;5040775;28;45163;-77
2022/06/21 02:49:36;;;;;;;;;;;;;;;;;;5032340;28;48135;-76
2022/06/21 02:52:03;;;;;;;;;;;;;;;;;;5039820;28;47022;-76
2022/06/21 02:54:29;;;;;;;;;;;;;;;;;;5026672;28;44749;-76
2022/06/21 02:56:55;;;;;;;;;;;;;;;;;;5040834;28;47522;-76
2022/06/21 02:59:21;;;;;;;;;;;;;;;;;;5038302;28;50836;-77
2022/06/21 03:01:48;;;;;;;;;;;;;;;;;;5041511;28;43822;-76
2022/06/21 03:04:14;;;;;;;;;;;;;;;;;;5037209;28;46322;-76
2022/06/21 03:06:40;;;;;;;;;;;;;;;;;;5018055;28;45451;-77
2022/06/21 03:09:07;;;;;;;;;;;;;;;;;;5031220;28;46613;-76
2022/06/21 03:11:33;;;;;;;;;;;;;;;;;;5034001;28;46225;-76
2022/06/21 03:14:00;;;;;;;;;;;;;;;;;;5040106;28;45244;-76
2022/06/21 03:16:26;;;;;;;;;;;;;;;;;;5049545;28;47516;-76
2022/06/21 03:18:53;;;;;;;;;;;;;;;;;;5037863;28;47310;-76
2022/06/21 03:21:19;;;;;;;;;;;;;;;;;;5023441;28;44297;-76
2022/06/21 03:23:45;;;;;;;;;;;;;;;;;;5025405;28;45312;-76
2022/06/21 03:26:11;;;;;;;;;;;;;;;;;;5037813;28;48189;-76
2022/06/21 03:28:38;;;;;;;;;;;;;;;;;;5013769;28;46342;-77
2022/06/21 03:31:04;;;;;;;;;;;;;;;;;;5020895;28;48083;-77
2022/06/21 03:33:30;;;;;;;;;;;;;;;;;;5035596;28;45054;-76
2022/06/21 03:35:57;;;;;;;;;;;;;;;;;;5031528;28;46279;-76
2022/06/21 03:38:23;;;;;;;;;;;;;;;;;;5039594;28;47020;-76
2022/06/21 03:43:39;;;;;;;;;;;;;;;;;;5027277;28;47561;-76
2022/06/21 03:46:05;;;;;;;;;;;;;;;;;;5018155;28;47099;-76
2022/06/21 03:48:31;;;;;;;;;;;;;;;;;;5045489;28;44836;-76
2022/06/21 03:50:58;;;;;;;;;;;;;;;;;;5035416;28;48552;-76
2022/06/21 03:53:24;;;;;;;;;;;;;;;;;;5039778;28;46441;-75
2022/06/21 03:55:51;;;;;;;;;;;;;;;;;;5051944;28;47796;-76
2022/06/21 03:58:21;;;;;;;;;;;;;;;;;;5048312;28;45689;-76
2022/06/21 04:00:47;;;;;;;;;;;;;;;;;;5037167;28;44496;-76
2022/06/21 04:03:14;;;;;;;;;;;;;;;;;;5053944;28;47785;-76
2022/06/21 04:05:40;;;;;;;;;;;;;;;;;;5037886;28;47464;-76
2022/06/21 04:08:06;;;;;;;;;;;;;;;;;;5036975;28;45816;-76
2022/06/21 04:10:33;;;;;;;;;;;;;;;;;;5041318;28;47611;-76
2022/06/21 04:12:59;;;;;;;;;;;;;;;;;;5033450;28;43115;-76
2022/06/21 04:15:25;;;;;;;;;;;;;;;;;;5044936;28;46495;-75
2022/06/21 04:17:53;;;;;;;;;;;;;;;;;;5038609;28;46831;-76
2022/06/21 04:20:19;;;;;;;;;;;;;;;;;;5033051;28;44691;-76
2022/06/21 04:22:45;;;;;;;;;;;;;;;;;;5038845;28;46494;-75
2022/06/21 04:25:11;;;;;;;;;;;;;;;;;;5039898;28;45827;-76
2022/06/21 04:27:38;;;;;;;;;;;;;;;;;;5021594;28;43031;-76
2022/06/21 04:30:04;;;;;;;;;;;;;;;;;;5032440;28;44391;-76
2022/06/21 04:32:30;;;;;;;;;;;;;;;;;;5024690;28;47114;-76
2022/06/21 04:34:56;;;;;;;;;;;;;;;;;;5039668;28;46108;-76
2022/06/21 04:37:22;;;;;;;;;;;;;;;;;;5028601;28;47015;-76
2022/06/21 04:39:49;;;;;;;;;;;;;;;;;;5039382;28;45680;-76
2022/06/21 04:42:15;;;;;;;;;;;;;;;;;;5036853;28;46476;-76
2022/06/21 04:44:41;;;;;;;;;;;;;;;;;;5043560;28;46087;-76
2022/06/21 04:47:07;;;;;;;;;;;;;;;;;;5018347;28;44721;-76
2022/06/21 04:49:34;;;;;;;;;;;;;;;;;;5027639;28;49144;-76
2022/06/21 04:52:00;;;;;;;;;;;;;;;;;;5044999;28;48231;-76
2022/06/21 04:54:26;;;;;;;;;;;;;;;;;;5039688;28;47608;-75
2022/06/21 04:56:59;;;;;;;;;;;;;;;;;;5024967;28;48076;-75
2022/06/21 04:59:36;;;;;;;;;;;;;;;;;;5021709;28;43808;-76
2022/06/21 05:02:02;;;;;;;;;;;;;;;;;;5043489;28;47358;-76
2022/06/21 05:04:29;;;;;;;;;;;;;;;;;;5024268;28;46709;-77
2022/06/21 05:06:55;;;;;;;;;;;;;;;;;;5018245;28;45776;-76
2022/06/21 05:09:22;;;;;;;;;;;;;;;;;;5029166;28;45744;-77
2022/06/21 05:11:48;;;;;;;;;;;;;;;;;;5043381;28;48354;-74
2022/06/21 05:14:14;;;;;;;;;;;;;;;;;;5040287;28;45662;-75
2022/06/21 05:16:40;;;;;;;;;;;;;;;;;;5049520;28;46310;-74
2022/06/21 05:19:12;;;;;;;;;;;;;;;;;;5023326;28;43861;-74
2022/06/21 05:21:38;;;;;;;;;;;;;;;;;;5028607;28;48059;-75
2022/06/21 05:24:05;;;;;;;;;;;;;;;;;;5034690;28;45750;-75
2022/06/21 05:26:31;;;;;;;;;;;;;;;;;;5035604;28;46217;-76
2022/06/21 05:28:57;;;;;;;;;;;;;;;;;;5041873;28;46623;-75
2022/06/21 05:31:23;;;;;;;;;;;;;;;;;;5045154;28;47443;-76
2022/06/21 05:33:50;;;;;;;;;;;;;;;;;;5027485;28;45869;-75
2022/06/21 05:36:16;;;;;;;;;;;;;;;;;;5017960;28;46478;-75
2022/06/21 05:38:42;;;;;;;;;;;;;;;;;;5009106;28;44746;-76
2022/06/21 05:41:09;;;;;;;;;;;;;;;;;;5017173;28;46860;-75
2022/06/21 05:43:35;;;;;;;;;;;;;;;;;;5032395;28;45967;-75
2022/06/21 05:46:11;;;;;;;;;;;;;;;;;;5036343;28;43084;-75
2022/06/21 05:48:41;;;;;;;;;;;;;;;;;;5024805;28;47358;-75
2022/06/21 05:51:07;;;;;;;;;;;;;;;;;;5020427;28;47095;-75
2022/06/21 05:53:34;;;;;;;;;;;;;;;;;;5029241;28;45827;-75
2022/06/21 05:56:00;;;;;;;;;;;;;;;;;;5027998;28;47502;-76
2022/06/21 05:58:26;;;;;;;;;;;;;;;;;;5022413;28;48099;-76
2022/06/21 06:00:53;;;;;;;;;;;;;;;;;;5027700;28;47748;-76
2022/06/21 06:03:19;;;;;;;;;;;;;;;;;;5023198;28;46208;-76
2022/06/21 06:05:46;;;;;;;;;;;;;;;;;;5016957;28;44922;-77
2022/06/21 06:08:12;;;;;;;;;;;;;;;;;;5030473;28;45187;-76
2022/06/21 06:10:38;;;;;;;;;;;;;;;;;;5026652;28;48028;-76
2022/06/21 06:13:05;;;;;;;;;;;;;;;;;;5025493;28;46917;-77
2022/06/21 06:15:31;;;;;;;;;;;;;;;;;;5010669;28;45620;-76
2022/06/21 06:17:57;;;;;;;;;;;;;;;;;;5035117;28;48223;-77
2022/06/21 06:20:24;;;;;;;;;;;;;;;;;;5024896;28;45818;-76
2022/06/21 06:22:50;;;;;;;;;;;;;;;;;;5024044;28;45199;-80
2022/06/21 06:25:19;;;;;;;;;;;;;;;;;;5014363;28;43617;-77
2022/06/21 06:27:45;;;;;;;;;;;;;;;;;;5024111;28;47541;-77
2022/06/21 06:30:12;;;;;;;;;;;;;;;;;;5029455;28;48377;-77
2022/06/21 06:32:38;;;;;;;;;;;;;;;;;;5028451;28;44079;-77
2022/06/21 06:35:04;;;;;;;;;;;;;;;;;;5014381;28;43739;-77
2022/06/21 06:37:30;;;;;;;;;;;;;;;;;;5031826;28;48539;-78
2022/06/21 06:39:57;;;;;;;;;;;;;;;;;;5028178;28;45730;-77
2022/06/21 06:42:23;;;;;;;;;;;;;;;;;;5023137;28;47568;-77
2022/06/21 06:44:50;;;;;;;;;;;;;;;;;;5031034;28;46102;-77
2022/06/21 06:47:16;;;;;;;;;;;;;;;;;;5023737;28;45223;-77
2022/06/21 06:49:42;;;;;;;;;;;;;;;;;;5021950;28;47016;-77
2022/06/21 06:52:08;;;;;;;;;;;;;;;;;;5029138;28;44627;-76
2022/06/21 06:54:35;;;;;;;;;;;;;;;;;;5020007;28;47463;-76
2022/06/21 06:57:01;;;;;;;;;;;;;;;;;;5035688;28;47252;-76
2022/06/21 06:59:27;;;;;;;;;;;;;;;;;;5020389;28;45973;-76
2022/06/21 07:01:57;;;;;;;;;;;;;;;;;;5025977;28;47591;-76
2022/06/21 07:04:24;;;;;;;;;;;;;;;;;;5034358;28;45484;-77
2022/06/21 07:06:50;;;;;;;;;;;;;;;;;;5017452;28;47805;-77
2022/06/21 07:09:16;;;;;;;;;;;;;;;;;;5029545;28;48382;-77
2022/06/21 07:11:43;;;;;;;;;;;;;;;;;;5032865;28;43581;-78
2022/06/21 07:14:09;;;;;;;;;;;;;;;;;;5026612;28;47561;-78
2022/06/21 07:16:35;;;;;;;;;;;;;;;;;;5015221;28;47508;-77
2022/06/21 07:19:03;;;;;;;;;;;;;;;;;;5027831;28;41953;-77
2022/06/21 07:21:29;;;;;;;;;;;;;;;;;;5023767;28;45611;-77
2022/06/21 07:23:58;;;;;;;;;;;;;;;;;;5043253;28;48002;-78
2022/06/21 07:26:24;;;;;;;;;;;;;;;;;;5040647;28;47549;-78
2022/06/21 07:28:50;;;;;;;;;;;;;;;;;;5019716;28;48123;-78
2022/06/21 07:31:17;;;;;;;;;;;;;;;;;;5037080;28;44681;-78
2022/06/21 07:33:43;;;;;;;;;;;;;;;;;;5032888;28;46397;-78
2022/06/21 07:36:15;;;;;;;;;;;;;;;;;;5036210;28;46498;-78
2022/06/21 07:38:42;;;;;;;;;;;;;;;;;;5016260;28;44350;-78
2022/06/21 07:41:10;;;;;;;;;;;;;;;;;;5016558;28;46343;-78
2022/06/21 07:43:36;;;;;;;;;;;;;;;;;;5029582;28;46756;-78
2022/06/21 07:46:02;;;;;;;;;;;;;;;;;;5040114;28;42923;-78
2022/06/21 07:48:29;;;;;;;;;;;;;;;;;;5041682;28;48099;-76
2022/06/21 07:50:55;;;;;;;;;;;;;;;;;;5042432;28;44620;-77
2022/06/21 07:53:21;;;;;;;;;;;;;;;;;;5040869;28;46859;-78
2022/06/21 07:55:48;;;;;;;;;;;;;;;;;;5035821;28;45994;-78
2022/06/21 07:58:14;;;;;;;;;;;;;;;;;;5036343;28;45134;-77
2022/06/21 08:08:56;;;;;;;;;;;;;;;;;;5034164;28;46522;-78
2022/06/21 08:11:22;;;;;;;;;;;;;;;;;;5027554;28;44746;-77
2022/06/21 08:13:49;;;;;;;;;;;;;;;;;;5008857;28;46795;-78
2022/06/21 08:16:15;;;;;;;;;;;;;;;;;;5020866;28;48353;-78
2022/06/21 08:18:41;;;;;;;;;;;;;;;;;;5043888;28;43367;-77
2022/06/21 08:21:07;;;;;;;;;;;;;;;;;;5014725;28;45087;-77
2022/06/21 08:23:34;;;;;;;;;;;;;;;;;;5035583;28;47200;-77
2022/06/21 08:26:00;;;;;;;;;;;;;;;;;;5010222;28;44797;-78
2022/06/21 08:28:26;;;;;;;;;;;;;;;;;;5018874;28;46524;-81
2022/06/21 08:30:53;;;;;;;;;;;;;;;;;;5034660;28;46997;-79
2022/06/21 08:33:19;;;;;;;;;;;;;;;;;;5008534;28;48015;-82
2022/06/21 08:35:45;;;;;;;;;;;;;;;;;;5011926;28;45860;-78
2022/06/21 08:38:11;;;;;;;;;;;;;;;;;;5030752;28;45927;-79
2022/06/21 08:40:38;;;;;;;;;;;;;;;;;;5031002;28;47787;-79
2022/06/21 08:43:04;;;;;;;;;;;;;;;;;;5026758;28;46976;-78
2022/06/21 08:45:43;;;;;;;;;;;;;;;;;;5012626;28;44717;-78
2022/06/21 08:48:09;;;;;;;;;;;;;;;;;;5023276;28;47803;-78
2022/06/21 08:50:36;;;;;;;;;;;;;;;;;;5040686;28;47953;-76
2022/06/21 08:53:02;;;;;;;;;;;;;;;;;;5029801;28;46112;-77
2022/06/21 08:55:29;;;;;;;;;;;;;;;;;;5028077;28;48073;-78
2022/06/21 08:57:55;;;;;;;;;;;;;;;;;;5040544;28;43640;-75
2022/06/21 09:00:21;;;;;;;;;;;;;;;;;;5039972;28;46397;-75
2022/06/21 09:02:47;;;;;;;;;;;;;;;;;;5037852;28;47112;-75
2022/06/21 09:05:14;;;;;;;;;;;;;;;;;;5015880;28;43011;-75
2022/06/21 09:07:40;;;;;;;;;;;;;;;;;;5033636;28;46457;-74
2022/06/21 09:10:06;;;;;;;;;;;;;;;;;;5023562;28;48091;-77
2022/06/21 09:12:33;;;;;;;;;;;;;;;;;;5020594;28;45471;-77
2022/06/21 09:14:59;;;;;;;;;;;;;;;;;;5021989;28;46878;-78
2022/06/21 09:17:26;;;;;;;;;;;;;;;;;;5046723;28;45891;-77
2022/06/21 09:19:52;;;;;;;;;;;;;;;;;;5035699;28;47771;-76
2022/06/21 09:22:19;;;;;;;;;;;;;;;;;;5029204;28;47435;-74
2022/06/21 09:24:45;;;;;;;;;;;;;;;;;;5031487;28;44936;-75
2022/06/21 09:27:11;;;;;;;;;;;;;;;;;;5021866;28;46490;-75
2022/06/21 09:29:37;;;;;;;;;;;;;;;;;;5033953;28;46227;-75
2022/06/21 09:32:04;;;;;;;;;;;;;;;;;;5032979;28;44717;-75
2022/06/21 09:34:30;;;;;;;;;;;;;;;;;;5024764;28;46343;-75
2022/06/21 09:36:56;;;;;;;;;;;;;;;;;;5039863;28;44693;-79
2022/06/21 09:39:22;;;;;;;;;;;;;;;;;;5024890;28;47538;-77
2022/06/21 09:41:49;;;;;;;;;;;;;;;;;;5038953;28;46860;-78
2022/06/21 09:44:15;;;;;;;;;;;;;;;;;;5047777;28;45887;-79
2022/06/21 09:46:41;;;;;;;;;;;;;;;;;;5031567;28;47571;-79
2022/06/21 09:49:08;;;;;;;;;;;;;;;;;;5043252;28;47565;-76
2022/06/21 09:51:34;;;;;;;;;;;;;;;;;;5030157;28;43691;-74
2022/06/21 09:54:00;;;;;;;;;;;;;;;;;;5012343;28;44635;-77
2022/06/21 09:56:27;;;;;;;;;;;;;;;;;;5003476;28;46890;-77
2022/06/21 09:58:53;;;;;;;;;;;;;;;;;;5007321;28;46630;-76
2022/06/21 10:01:19;;;;;;;;;;;;;;;;;;5001860;28;47014;-78
2022/06/21 10:03:45;;;;;;;;;;;;;;;;;;5015186;28;47371;-75
2022/06/21 10:06:12;;;;;;;;;;;;;;;;;;5002593;28;47514;-76
2022/06/21 10:08:38;;;;;;;;;;;;;;;;;;5014033;28;48144;-77
2022/06/21 10:11:04;;;;;;;;;;;;;;;;;;5008468;28;44541;-78
2022/06/21 10:13:30;;;;;;;;;;;;;;;;;;5025705;28;46478;-79
2022/06/21 10:15:57;;;;;;;;;;;;;;;;;;5030009;28;46978;-79
2022/06/21 10:18:23;;;;;;;;;;;;;;;;;;5013394;28;44716;-78
2022/06/21 10:20:49;;;;;;;;;;;;;;;;;;5042316;28;47007;-78
2022/06/21 10:23:16;;;;;;;;;;;;;;;;;;5042765;28;41848;-77
2022/06/21 10:25:42;;;;;;;;;;;;;;;;;;5025715;28;46583;-75
2022/06/21 10:28:08;;;;;;;;;;;;;;;;;;5011325;28;48124;-78
2022/06/21 10:30:35;;;;;;;;;;;;;;;;;;5040344;28;45862;-76
2022/06/21 10:33:02;;;;;;;;;;;;;;;;;;5036371;28;48094;-80
2022/06/21 10:35:28;;;;;;;;;;;;;;;;;;5042804;28;48313;-79
2022/06/21 10:37:56;;;;;;;;;;;;;;;;;;5025633;28;45022;-76
2022/06/21 10:40:22;;;;;;;;;;;;;;;;;;5025497;28;46476;-76
2022/06/21 10:42:49;;;;;;;;;;;;;;;;;;5023275;28;45843;-76
2022/06/21 10:45:15;;;;;;;;;;;;;;;;;;5022974;28;46332;-76
2022/06/21 10:47:49;;;;;;;;;;;;;;;;;;5022098;28;46998;-76
2022/06/21 10:50:15;;;;;;;;;;;;;;;;;;5042595;28;45126;-76
2022/06/21 10:52:59;;;;;;;;;;;;;;;;;;5040368;28;47911;-76
2022/06/21 10:55:28;;;;;;;;;;;;;;;;;;5021369;28;48126;-79
2022/06/21 10:57:54;;;;;;;;;;;;;;;;;;5019335;28;44636;-76
2022/06/21 11:03:07;;;;;;;;;;;;;;;;;;5031815;28;37029;-78
2022/06/21 11:05:33;;;;;;;;;;;;;;;;;;5043783;28;46368;-80
2022/06/21 11:07:59;;;;;;;;;;;;;;;;;;5025444;28;46100;-80
2022/06/21 11:10:31;;;;;;;;;;;;;;;;;;5040761;28;45107;-78
2022/06/21 11:13:04;;;;;;;;;;;;;;;;;;5021969;28;45492;-79
2022/06/21 11:15:30;;;;;;;;;;;;;;;;;;5042535;28;45102;-77
2022/06/21 11:17:58;;;;;;;;;;;;;;;;;;5021028;28;43255;-77
2022/06/21 11:20:25;;;;;;;;;;;;;;;;;;5012851;28;47357;-76
2022/06/21 11:22:51;;;;;;;;;;;;;;;;;;5023081;28;47116;-76
2022/06/21 11:25:17;;;;;;;;;;;;;;;;;;5023111;28;49524;-76
2022/06/21 11:27:44;;;;;;;;;;;;;;;;;;5029077;28;46932;-76
2022/06/21 11:30:10;;;;;;;;;;;;;;;;;;5042147;28;45850;-76
2022/06/21 11:32:36;;;;;;;;;;;;;;;;;;5042210;28;44885;-81
2022/06/21 11:35:03;;;;;;;;;;;;;;;;;;5020031;28;48110;-78
2022/06/21 11:37:29;;;;;;;;;;;;;;;;;;5022702;28;45264;-77
2022/06/21 11:39:57;;;;;;;;;;;;;;;;;;5024597;28;48105;-76
2022/06/21 11:42:27;;;;;;;;;;;;;;;;;;5024849;28;46945;-77
2022/06/21 11:44:53;;;;;;;;;;;;;;;;;;5006397;28;47643;-77
2022/06/21 11:47:20;;;;;;;;;;;;;;;;;;5009316;28;47966;-76
2022/06/21 11:49:48;;;;;;;;;;;;;;;;;;5035742;28;42945;-77
2022/06/21 11:52:14;;;;;;;;;;;;;;;;;;5015221;28;46999;-76
2022/06/21 11:54:40;;;;;;;;;;;;;;;;;;5026974;28;46883;-76
2022/06/21 11:57:06;;;;;;;;;;;;;;;;;;5036224;28;43693;-76
2022/06/21 11:59:33;;;;;;;;;;;;;;;;;;5016636;28;45267;-76
2022/06/21 12:01:59;;;;;;;;;;;;;;;;;;5022615;28;47092;-78
2022/06/21 12:04:25;;;;;;;;;;;;;;;;;;5033776;28;44295;-75
2022/06/21 12:06:52;;;;;;;;;;;;;;;;;;5034296;28;47303;-76
2022/06/21 12:09:23;;;;;;;;;;;;;;;;;;5040732;28;45470;-76
2022/06/21 12:11:49;;;;;;;;;;;;;;;;;;5026805;28;45370;-78
2022/06/21 12:14:16;;;;;;;;;;;;;;;;;;5027116;28;46002;-78
2022/06/21 12:16:42;;;;;;;;;;;;;;;;;;5030851;28;43366;-76
2022/06/21 12:19:08;;;;;;;;;;;;;;;;;;5030697;28;46119;-78
2022/06/21 12:21:34;;;;;;;;;;;;;;;;;;5021285;28;47119;-78
2022/06/21 12:24:01;;;;;;;;;;;;;;;;;;5032255;28;44732;-78
2022/06/21 12:26:27;;;;;;;;;;;;;;;;;;5036496;28;46517;-79
2022/06/21 12:28:53;;;;;;;;;;;;;;;;;;5008389;28;46997;-77
2022/06/21 12:31:20;;;;;;;;;;;;;;;;;;5021380;28;45372;-76
2022/06/21 12:33:46;;;;;;;;;;;;;;;;;;5020740;28;48384;-76
2022/06/21 12:36:19;;;;;;;;;;;;;;;;;;5039164;28;43723;-76
2022/06/21 12:38:46;;;;;;;;;;;;;;;;;;5017561;28;44753;-78
2022/06/21 12:41:12;;;;;;;;;;;;;;;;;;5030270;28;47349;-76
2022/06/21 12:43:38;;;;;;;;;;;;;;;;;;5037391;28;44730;-77
2022/06/21 12:46:04;;;;;;;;;;;;;;;;;;5024102;28;47712;-76
2022/06/21 12:48:31;;;;;;;;;;;;;;;;;;5021833;28;47239;-76
2022/06/21 12:50:57;;;;;;;;;;;;;;;;;;5017059;28;45813;-78
2022/06/21 12:53:23;;;;;;;;;;;;;;;;;;5034553;28;48122;-77
2022/06/21 12:55:53;;;;;;;;;;;;;;;;;;5011176;28;43574;-75
2022/06/21 12:58:19;;;;;;;;;;;;;;;;;;5032066;28;47521;-78
2022/06/21 13:00:45;;;;;;;;;;;;;;;;;;5040001;28;47889;-75
2022/06/21 13:03:12;;;;;;;;;;;;;;;;;;5029259;28;43833;-74
2022/06/21 13:05:38;;;;;;;;;;;;;;;;;;5016674;28;47826;-77
2022/06/21 13:08:04;;;;;;;;;;;;;;;;;;5041600;28;48057;-75
2022/06/21 13:10:31;;;;;;;;;;;;;;;;;;5041984;28;44676;-78
2022/06/21 13:12:57;;;;;;;;;;;;;;;;;;5037531;28;47388;-77
2022/06/21 13:15:23;;;;;;;;;;;;;;;;;;5050117;28;44694;-77
2022/06/21 13:17:50;;;;;;;;;;;;;;;;;;5035003;28;44934;-77
2022/06/21 13:20:16;;;;;;;;;;;;;;;;;;5036865;28;45584;-75
2022/06/21 13:22:42;;;;;;;;;;;;;;;;;;5039135;28;44739;-75
2022/06/21 13:25:09;;;;;;;;;;;;;;;;;;5045027;28;46436;-75
2022/06/21 13:27:35;;;;;;;;;;;;;;;;;;5034134;28;46982;-74
2022/06/21 13:30:01;;;;;;;;;;;;;;;;;;5038812;28;44735;-75
2022/06/21 13:32:28;;;;;;;;;;;;;;;;;;5037754;28;46298;-75
2022/06/21 13:34:54;;;;;;;;;;;;;;;;;;5036733;28;46130;-76
2022/06/21 13:37:22;;;;;;;;;;;;;;;;;;5034553;28;46517;-74
2022/06/21 13:39:48;;;;;;;;;;;;;;;;;;5027330;28;47040;-76
2022/06/21 13:45:01;;;;;;;;;;;;;;;;;;5039422;28;46821;-76
2022/06/21 13:47:27;;;;;;;;;;;;;;;;;;5018676;28;47193;-74
2022/06/21 13:49:54;;;;;;;;;;;;;;;;;;5028311;28;45879;-75
2022/06/21 13:52:21;;;;;;;;;;;;;;;;;;5020293;28;47329;-77
2022/06/21 13:55:00;;;;;;;;;;;;;;;;;;5039476;28;46882;-74
2022/06/21 13:57:26;;;;;;;;;;;;;;;;;;5043496;28;46414;-74
2022/06/21 13:59:53;;;;;;;;;;;;;;;;;;5038795;28;46984;-74
2022/06/21 14:02:19;;;;;;;;;;;;;;;;;;5042929;28;43459;-74
2022/06/21 14:04:47;;;;;;;;;;;;;;;;;;5021098;28;47681;-74
2022/06/21 14:07:17;;;;;;;;;;;;;;;;;;5037031;28;47341;-73
2022/06/21 14:09:44;;;;;;;;;;;;;;;;;;5032416;28;45987;-75
2022/06/21 14:12:10;;;;;;;;;;;;;;;;;;5031370;28;44314;-73
2022/06/21 14:14:37;;;;;;;;;;;;;;;;;;5038160;28;47191;-73
2022/06/21 14:17:03;;;;;;;;;;;;;;;;;;5024980;28;43078;-73
2022/06/21 14:19:31;;;;;;;;;;;;;;;;;;5026833;28;48396;-73
2022/06/21 14:21:57;;;;;;;;;;;;;;;;;;5043657;28;43652;-73
2022/06/21 14:24:23;;;;;;;;;;;;;;;;;;5044331;28;43860;-73
2022/06/21 14:26:49;;;;;;;;;;;;;;;;;;5034760;28;48108;-73
2022/06/21 14:29:16;;;;;;;;;;;;;;;;;;5038140;28;44602;-73
2022/06/21 14:31:42;;;;;;;;;;;;;;;;;;5040661;28;46979;-74
2022/06/21 14:34:08;;;;;;;;;;;;;;;;;;5024392;28;48748;-73
2022/06/21 14:36:35;;;;;;;;;;;;;;;;;;5036374;28;45286;-74
2022/06/21 14:39:01;;;;;;;;;;;;;;;;;;5017760;28;46466;-73
2022/06/21 14:41:27;;;;;;;;;;;;;;;;;;5037638;28;44737;-73
2022/06/21 14:43:53;;;;;;;;;;;;;;;;;;5037076;28;46855;-73
2022/06/21 14:46:20;;;;;;;;;;;;;;;;;;5034698;28;47060;-73
2022/06/21 14:48:46;;;;;;;;;;;;;;;;;;5029878;28;46581;-73
2022/06/21 14:51:12;;;;;;;;;;;;;;;;;;5038135;28;45280;-73
2022/06/21 14:53:39;;;;;;;;;;;;;;;;;;5027493;28;46879;-73
2022/06/21 14:56:05;;;;;;;;;;;;;;;;;;5015237;28;43712;-73
2022/06/21 14:58:46;;;;;;;;;;;;;;;;;;5038767;28;46765;-73
2022/06/21 15:01:30;;;;;;;;;;;;;;;;;;5033574;28;45835;-73
2022/06/21 15:03:56;;;;;;;;;;;;;;;;;;5023536;28;48032;-73
2022/06/21 15:06:23;;;;;;;;;;;;;;;;;;5028960;28;48429;-73
2022/06/21 15:08:49;;;;;;;;;;;;;;;;;;5029147;28;45776;-73
2022/06/21 15:11:15;;;;;;;;;;;;;;;;;;5031319;28;47424;-73
2022/06/21 15:13:41;;;;;;;;;;;;;;;;;;5040944;28;48135;-74
2022/06/21 15:16:08;;;;;;;;;;;;;;;;;;5038863;28;45334;-74
2022/06/21 15:18:37;;;;;;;;;;;;;;;;;;5027250;28;46240;-74
2022/06/21 15:21:04;;;;;;;;;;;;;;;;;;5039064;28;47265;-74
2022/06/21 15:23:30;;;;;;;;;;;;;;;;;;5036032;28;47368;-74
2022/06/21 15:25:56;;;;;;;;;;;;;;;;;;5040348;28;48028;-74
2022/06/21 15:28:23;;;;;;;;;;;;;;;;;;5038225;28;45929;-73
2022/06/21 15:30:49;;;;;;;;;;;;;;;;;;5040058;28;47633;-73
2022/06/21 15:33:15;;;;;;;;;;;;;;;;;;5040127;28;48121;-73
2022/06/21 15:35:41;;;;;;;;;;;;;;;;;;5037582;28;43201;-73
2022/06/21 15:38:08;;;;;;;;;;;;;;;;;;5037774;28;46492;-73
2022/06/21 15:40:34;;;;;;;;;;;;;;;;;;5039121;28;46994;-73
2022/06/21 15:43:00;;;;;;;;;;;;;;;;;;5013080;28;44737;-73
2022/06/21 15:45:28;;;;;;;;;;;;;;;;;;5038629;28;48365;-73
2022/06/21 15:50:40;;;;;;;;;;;;;;;;;;5039231;28;46461;-73
2022/06/21 15:53:06;;;;;;;;;;;;;;;;;;5029923;28;46854;-73
2022/06/21 15:55:32;;;;;;;;;;;;;;;;;;5039595;28;45992;-73
2022/06/21 15:57:58;;;;;;;;;;;;;;;;;;5040552;28;46415;-72
2022/06/21 16:00:25;;;;;;;;;;;;;;;;;;5022500;28;46987;-73
2022/06/21 16:02:52;;;;;;;;;;;;;;;;;;5039441;28;44242;-73
2022/06/21 16:05:18;;;;;;;;;;;;;;;;;;5043060;28;47947;-73
2022/06/21 16:07:44;;;;;;;;;;;;;;;;;;5039778;28;44705;-73
2022/06/21 16:10:10;;;;;;;;;;;;;;;;;;5024937;28;46401;-73
2022/06/21 16:12:38;;;;;;;;;;;;;;;;;;5024502;28;47010;-73
2022/06/21 16:15:04;;;;;;;;;;;;;;;;;;5034885;28;43414;-73
2022/06/21 16:17:30;;;;;;;;;;;;;;;;;;5036821;28;45445;-72
2022/06/21 16:19:57;;;;;;;;;;;;;;;;;;5042234;28;45778;-72
2022/06/21 16:22:23;;;;;;;;;;;;;;;;;;5041583;28;45784;-73
2022/06/21 16:24:50;;;;;;;;;;;;;;;;;;5024816;28;47260;-73
2022/06/21 16:27:16;;;;;;;;;;;;;;;;;;5026910;28;46971;-73
2022/06/21 16:29:42;;;;;;;;;;;;;;;;;;5042138;28;46707;-73
2022/06/21 16:34:55;;;;;;;;;;;;;;;;;;5000253;28;45809;-73
2022/06/21 16:37:21;;;;;;;;;;;;;;;;;;5041931;28;46488;-73
2022/06/21 16:39:48;;;;;;;;;;;;;;;;;;5044855;28;48142;-72
2022/06/21 16:45:00;;;;;;;;;;;;;;;;;;5023787;28;47571;-72
2022/06/21 16:47:26;;;;;;;;;;;;;;;;;;5023368;28;47088;-73
2022/06/21 16:49:52;;;;;;;;;;;;;;;;;;5045629;28;44645;-72
2022/06/21 16:52:18;;;;;;;;;;;;;;;;;;5040888;28;47010;-73
2022/06/21 16:54:45;;;;;;;;;;;;;;;;;;5041907;28;44598;-72
2022/06/21 16:57:11;;;;;;;;;;;;;;;;;;5043829;28;45246;-73
2022/06/21 16:59:38;;;;;;;;;;;;;;;;;;5038616;28;46862;-73
2022/06/21 17:02:06;;;;;;;;;;;;;;;;;;5030197;28;44580;-73
2022/06/21 17:04:32;;;;;;;;;;;;;;;;;;5015969;28;46019;-73
2022/06/21 17:06:59;;;;;;;;;;;;;;;;;;5036583;28;46983;-73